createdAt,value
2018-08-13T00:01:51.053Z,27.34
2018-08-13T00:04:23.536Z,27.22
2018-08-13T00:06:54.682Z,27.05
2018-08-13T00:09:43.121Z,26.98
2018-08-13T00:12:14.429Z,26.96
2018-08-13T00:14:45.521Z,26.75
2018-08-13T00:17:16.981Z,26.65
2018-08-13T00:19:48.084Z,26.62
2018-08-13T00:22:19.729Z,26.56
2018-08-13T00:24:50.824Z,26.54
2018-08-13T00:27:21.056Z,26.51
2018-08-13T00:29:52.153Z,26.46
2018-08-13T00:32:22.512Z,26.43
2018-08-13T00:34:54.501Z,26.38
2018-08-13T00:37:27.626Z,26.28
2018-08-13T00:39:59.441Z,26.20
2018-08-13T00:42:30.177Z,26.13
2018-08-13T00:45:03.244Z,26.01
2018-08-13T00:47:33.511Z,25.94
2018-08-13T00:50:04.966Z,25.83
2018-08-13T00:52:37.063Z,25.73
2018-08-13T00:55:08.753Z,25.69
2018-08-13T00:57:41.734Z,25.78
2018-08-13T01:00:21.851Z,25.79
2018-08-13T01:02:53.470Z,25.88
2018-08-13T01:05:23.693Z,25.88
2018-08-13T01:07:54.574Z,25.86
2018-08-13T01:10:25.982Z,25.86
2018-08-13T01:12:56.196Z,25.88
2018-08-13T01:15:31.182Z,25.77
2018-08-13T01:18:01.557Z,25.64
2018-08-13T01:20:31.828Z,25.70
2018-08-13T01:23:06.239Z,25.69
2018-08-13T01:28:08.586Z,25.75
2018-08-13T01:30:44.214Z,25.80
2018-08-13T01:33:15.998Z,25.75
2018-08-13T01:35:47.826Z,25.79
2018-08-13T01:38:18.018Z,25.81
2018-08-13T01:40:53.559Z,25.73
2018-08-13T01:43:25.417Z,25.72
2018-08-13T01:45:56.502Z,25.71
2018-08-13T01:48:28.912Z,25.69
2018-08-13T01:50:59.976Z,25.67
2018-08-13T01:53:32.548Z,25.70
2018-08-13T01:56:03.097Z,25.78
2018-08-13T01:58:34.573Z,25.86
2018-08-13T02:01:05.938Z,25.82
2018-08-13T02:03:38.083Z,25.97
2018-08-13T02:06:09.247Z,25.83
2018-08-13T02:08:42.420Z,25.74
2018-08-13T02:11:14.344Z,25.86
2018-08-13T02:13:47.602Z,25.87
2018-08-13T02:16:18.724Z,25.87
2018-08-13T02:18:49.825Z,25.80
2018-08-13T02:21:21.316Z,25.82
2018-08-13T02:23:52.989Z,25.79
2018-08-13T02:26:23.577Z,25.78
2018-08-13T02:28:55.271Z,25.79
2018-08-13T02:31:26.332Z,25.71
2018-08-13T02:33:57.447Z,25.59
2018-08-13T02:36:29.072Z,25.59
2018-08-13T02:39:00.116Z,25.58
2018-08-13T02:41:30.558Z,25.54
2018-08-13T02:44:00.810Z,25.53
2018-08-13T02:46:31.867Z,25.54
2018-08-13T02:49:03.411Z,25.42
2018-08-13T02:51:36.595Z,25.45
2018-08-13T02:54:08.236Z,25.27
2018-08-13T02:56:38.728Z,25.26
2018-08-13T02:59:09.770Z,25.14
2018-08-13T03:01:41.465Z,25.10
2018-08-13T03:04:13.070Z,25.05
2018-08-13T03:06:44.114Z,25.07
2018-08-13T03:09:15.155Z,25.11
2018-08-13T03:11:45.430Z,25.16
2018-08-13T03:14:15.760Z,25.16
2018-08-13T03:16:47.630Z,25.23
2018-08-13T03:19:18.737Z,25.14
2018-08-13T03:21:50.652Z,25.08
2018-08-13T03:24:22.644Z,25.08
2018-08-13T03:26:55.037Z,24.76
2018-08-13T03:29:28.151Z,25.01
2018-08-13T03:31:58.573Z,24.92
2018-08-13T03:34:29.443Z,24.84
2018-08-13T03:36:59.644Z,24.87
2018-08-13T03:39:29.920Z,24.85
2018-08-13T03:42:01.670Z,24.76
2018-08-13T03:44:33.495Z,24.66
2018-08-13T03:47:03.891Z,24.71
2018-08-13T03:49:34.276Z,24.64
2018-08-13T03:52:04.392Z,24.56
2018-08-13T03:54:34.589Z,24.49
2018-08-13T03:57:06.593Z,24.48
2018-08-13T03:59:38.793Z,23.83
2018-08-13T04:02:11.563Z,24.42
2018-08-13T04:04:43.477Z,24.40
2018-08-13T04:07:25.565Z,24.54
2018-08-13T04:09:55.838Z,24.71
2018-08-13T04:12:28.844Z,24.71
2018-08-13T04:14:59.361Z,24.64
2018-08-13T04:17:30.620Z,24.65
2018-08-13T04:20:06.420Z,24.56
2018-08-13T04:22:37.824Z,24.12
2018-08-13T04:25:10.697Z,24.09
2018-08-13T04:27:42.213Z,25.04
2018-08-13T04:30:18.335Z,25.35
2018-08-13T04:32:48.987Z,25.57
2018-08-13T04:35:19.584Z,25.77
2018-08-13T04:37:49.897Z,25.93
2018-08-13T04:40:21.482Z,26.06
2018-08-13T04:42:52.619Z,25.92
2018-08-13T04:45:24.623Z,25.77
2018-08-13T04:47:55.874Z,25.66
2018-08-13T04:50:26.144Z,25.68
2018-08-13T04:52:57.537Z,25.86
2018-08-13T04:55:27.791Z,25.97
2018-08-13T04:57:59.297Z,26.23
2018-08-13T05:00:30.641Z,26.35
2018-08-13T05:03:00.844Z,26.41
2018-08-13T05:05:31.870Z,26.62
2018-08-13T05:08:03.210Z,26.90
2018-08-13T05:10:34.287Z,27.65
2018-08-13T05:13:04.780Z,28.21
2018-08-13T05:15:35.912Z,28.55
2018-08-13T05:18:06.158Z,28.83
2018-08-13T05:20:37.220Z,28.83
2018-08-13T05:23:07.419Z,28.67
2018-08-13T05:25:38.776Z,28.99
2018-08-13T05:28:10.340Z,29.63
2018-08-13T05:30:39.690Z,29.70
2018-08-13T05:33:10.849Z,29.44
2018-08-13T05:35:44.547Z,29.76
2018-08-13T05:38:15.557Z,30.14
2018-08-13T05:40:47.329Z,30.68
2018-08-13T05:43:18.440Z,31.37
2018-08-13T05:45:49.053Z,31.94
2018-08-13T05:48:23.167Z,32.02
2018-08-13T05:50:55.063Z,31.78
2018-08-13T05:53:26.377Z,31.34
2018-08-13T05:55:56.600Z,30.97
2018-08-13T05:58:26.888Z,30.89
2018-08-13T06:00:57.662Z,30.45
2018-08-13T06:03:29.406Z,30.28
2018-08-13T06:09:44.846Z,29.97
2018-08-13T06:12:19.095Z,29.36
2018-08-13T06:14:52.481Z,29.32
2018-08-13T06:17:24.345Z,29.36
2018-08-13T06:19:56.428Z,28.77
2018-08-13T06:22:27.319Z,28.60
2018-08-13T06:24:58.461Z,28.36
2018-08-13T06:27:30.232Z,27.97
2018-08-13T06:30:04.494Z,27.21
2018-08-13T06:32:44.237Z,26.80
2018-08-13T06:35:29.618Z,26.15
2018-08-13T06:38:00.598Z,25.10
2018-08-13T06:40:32.353Z,24.87
2018-08-13T06:43:04.033Z,24.83
2018-08-13T06:45:36.760Z,24.66
2018-08-13T06:48:07.605Z,24.55
2018-08-13T06:50:39.321Z,24.71
2018-08-13T06:53:10.560Z,24.81
2018-08-13T06:55:40.241Z,24.92
2018-08-13T06:58:13.297Z,25.03
2018-08-13T07:00:43.189Z,25.26
2018-08-13T07:03:16.167Z,25.15
2018-08-13T07:05:47.424Z,24.78
2018-08-13T07:08:20.264Z,24.49
2018-08-13T07:10:49.891Z,24.56
2018-08-13T07:13:21.600Z,24.71
2018-08-13T07:15:52.686Z,24.78
2018-08-13T07:18:24.286Z,24.94
2018-08-13T07:20:55.861Z,25.36
2018-08-13T07:23:25.874Z,25.75
2018-08-13T07:25:57.332Z,25.76
2018-08-13T07:28:29.250Z,25.68
2018-08-13T07:30:58.700Z,25.75
2018-08-13T07:33:33.001Z,25.73
2018-08-13T07:36:04.379Z,25.71
2018-08-13T07:38:37.081Z,25.89
2018-08-13T07:41:09.847Z,25.24
2018-08-13T07:43:39.947Z,26.23
2018-08-13T07:46:09.304Z,26.24
2018-08-13T07:48:38.652Z,26.08
2018-08-13T07:51:08.005Z,26.12
2018-08-13T07:53:37.933Z,26.26
2018-08-13T07:56:08.676Z,26.24
2018-08-13T07:58:39.106Z,26.38
2018-08-13T08:01:09.436Z,26.16
2018-08-13T08:03:39.396Z,25.98
2018-08-13T08:06:10.613Z,26.16
2018-08-13T08:08:41.083Z,26.13
2018-08-13T08:11:10.555Z,26.05
2018-08-13T08:13:41.137Z,26.12
2018-08-13T08:16:11.955Z,26.21
2018-08-13T08:18:41.454Z,26.22
2018-08-13T08:21:11.550Z,26.12
2018-08-13T08:23:44.787Z,25.99
2018-08-13T08:26:14.375Z,25.85
2018-08-13T08:28:47.269Z,25.45
2018-08-13T08:31:22.530Z,26.25
2018-08-13T08:33:53.702Z,26.18
2018-08-13T08:36:23.025Z,26.39
2018-08-13T08:38:53.582Z,26.46
2018-08-13T08:41:24.259Z,26.04
2018-08-13T08:43:53.623Z,26.31
2018-08-13T08:46:23.265Z,26.13
2018-08-13T08:48:54.633Z,26.10
2018-08-13T08:51:23.989Z,26.04
2018-08-13T08:56:33.144Z,26.07
2018-08-13T08:59:03.525Z,26.02
2018-08-13T09:01:36.844Z,26.21
2018-08-13T09:04:08.828Z,26.40
2018-08-13T09:06:40.795Z,26.55
2018-08-13T09:09:12.577Z,26.52
2018-08-13T09:11:43.337Z,26.96
2018-08-13T09:14:15.244Z,27.26
2018-08-13T09:16:48.515Z,27.41
2018-08-13T09:19:29.808Z,27.50
2018-08-13T09:24:12.071Z,27.47
2018-08-13T09:26:55.580Z,27.48
2018-08-13T09:29:35.790Z,27.28
2018-08-13T09:32:30.067Z,27.14
2018-08-13T09:35:10.499Z,27.21
2018-08-13T09:37:39.933Z,27.53
2018-08-13T09:40:11.154Z,27.58
2018-08-13T09:42:40.857Z,27.62
2018-08-13T09:45:16.344Z,27.46
2018-08-13T09:47:47.469Z,27.83
2018-08-13T09:50:18.693Z,28.12
2018-08-13T09:52:49.539Z,28.20
2018-08-13T09:55:21.069Z,28.25
2018-08-13T09:57:52.333Z,28.41
2018-08-13T10:00:30.619Z,28.43
2018-08-13T10:02:59.977Z,28.68
2018-08-13T10:05:32.092Z,28.90
2018-08-13T10:08:02.789Z,29.20
2018-08-13T10:10:35.515Z,29.21
2018-08-13T10:13:06.720Z,28.87
2018-08-13T10:15:38.460Z,29.02
2018-08-13T10:18:08.801Z,28.90
2018-08-13T10:20:39.108Z,28.84
2018-08-13T10:23:11.708Z,28.92
2018-08-13T10:25:41.612Z,28.76
2018-08-13T10:28:11.028Z,28.88
2018-08-13T10:30:40.442Z,28.71
2018-08-13T10:33:10.936Z,28.85
2018-08-13T10:35:47.453Z,28.99
2018-08-13T10:38:18.529Z,28.99
2018-08-13T10:40:49.624Z,28.84
2018-08-13T10:43:20.252Z,28.65
2018-08-13T10:45:50.476Z,28.92
2018-08-13T10:48:20.776Z,29.15
2018-08-13T10:50:51.425Z,29.26
2018-08-13T10:53:22.752Z,28.87
2018-08-13T10:55:52.365Z,28.83
2018-08-13T10:58:23.606Z,28.78
2018-08-13T11:00:53.421Z,28.88
2018-08-13T11:03:24.547Z,28.72
2018-08-13T11:11:30.813Z,28.65
2018-08-13T11:14:00.600Z,28.67
2018-08-13T11:16:30.546Z,28.66
2018-08-13T11:19:01.608Z,28.63
2018-08-13T11:21:33.767Z,28.76
2018-08-13T11:24:04.435Z,28.54
2018-08-13T11:26:35.852Z,28.35
2018-08-13T11:29:05.679Z,28.44
2018-08-13T11:31:37.546Z,28.30
2018-08-13T11:34:07.061Z,28.57
2018-08-13T11:36:37.808Z,28.36
2018-08-13T11:39:11.409Z,28.02
2018-08-13T11:41:43.570Z,28.10
2018-08-13T11:44:14.021Z,27.66
2018-08-13T11:46:43.409Z,27.40
2018-08-13T11:49:15.221Z,27.34
2018-08-13T11:51:45.420Z,27.41
2018-08-13T11:54:16.335Z,27.51
2018-08-13T11:56:47.557Z,27.40
2018-08-13T11:59:17.794Z,27.26
2018-08-13T12:01:52.487Z,27.59
2018-08-13T12:04:22.222Z,27.10
2018-08-13T12:06:52.284Z,28.28
2018-08-13T12:09:23.326Z,28.78
2018-08-13T12:11:52.986Z,29.10
2018-08-13T12:14:23.568Z,29.18
2018-08-13T12:16:53.900Z,29.43
2018-08-13T12:19:24.714Z,28.97
2018-08-13T12:21:56.594Z,28.78
2018-08-13T12:24:28.500Z,28.91
2018-08-13T12:27:03.395Z,29.04
2018-08-13T12:29:33.290Z,29.08
2018-08-13T12:32:08.541Z,28.96
2018-08-13T12:34:38.158Z,28.87
2018-08-13T12:37:09.238Z,28.83
2018-08-13T12:39:40.472Z,28.62
2018-08-13T12:42:12.577Z,28.60
2018-08-13T12:44:43.600Z,28.52
2018-08-13T12:47:17.152Z,28.79
2018-08-13T12:49:49.117Z,29.32
2018-08-13T12:52:19.138Z,29.49
2018-08-13T12:54:48.937Z,30.03
2018-08-13T12:57:21.778Z,30.40
2018-08-13T12:59:53.136Z,30.71
2018-08-13T13:02:26.385Z,30.85
2018-08-13T13:05:00.041Z,31.15
2018-08-13T13:07:30.763Z,31.52
2018-08-13T13:10:03.436Z,31.28
2018-08-13T13:12:35.521Z,31.34
2018-08-13T13:15:14.869Z,31.63
2018-08-13T13:17:47.234Z,31.81
2018-08-13T13:20:23.547Z,31.91
2018-08-13T13:22:54.403Z,32.09
2018-08-13T13:25:23.780Z,31.85
2018-08-13T13:27:54.373Z,31.60
2018-08-13T13:30:25.392Z,31.55
2018-08-13T13:32:57.073Z,31.63
2018-08-13T13:35:27.387Z,31.74
2018-08-13T13:38:00.446Z,31.69
2018-08-13T13:40:33.635Z,31.48
2018-08-13T13:43:08.157Z,31.87
2018-08-13T13:45:39.218Z,32.28
2018-08-13T13:48:11.575Z,32.32
2018-08-13T13:50:43.908Z,32.31
2018-08-13T13:53:18.490Z,32.78
2018-08-13T13:55:48.864Z,32.81
2018-08-13T13:58:22.173Z,32.88
2018-08-13T14:00:53.543Z,33.34
2018-08-13T14:03:25.342Z,33.76
2018-08-13T14:05:56.455Z,33.91
2018-08-13T14:08:28.094Z,34.05
2018-08-13T14:11:03.263Z,33.76
2018-08-13T14:13:45.939Z,33.74
2018-08-13T14:16:17.853Z,33.65
2018-08-13T14:18:48.966Z,34.00
2018-08-13T14:21:20.527Z,33.72
2018-08-13T14:23:52.459Z,33.40
2018-08-13T14:26:22.779Z,33.25
2018-08-13T14:28:55.579Z,32.88
2018-08-13T14:31:28.563Z,32.92
2018-08-13T14:34:03.517Z,32.53
2018-08-13T14:42:38.620Z,32.58
2018-08-13T14:45:15.668Z,32.17
2018-08-13T14:47:50.396Z,32.10
2018-08-13T14:50:24.500Z,31.96
2018-08-13T14:52:56.895Z,31.92
2018-08-13T14:55:29.160Z,31.68
2018-08-13T14:58:00.861Z,31.41
2018-08-13T15:00:36.616Z,31.29
2018-08-13T15:03:13.036Z,31.17
2018-08-13T15:05:44.265Z,30.86
2018-08-13T15:08:16.353Z,30.64
2018-08-13T15:10:49.713Z,30.66
2018-08-13T15:13:23.813Z,30.63
2018-08-13T15:15:55.906Z,30.93
2018-08-13T15:18:27.282Z,31.00
2018-08-13T15:20:58.682Z,31.16
2018-08-13T15:23:31.053Z,31.05
2018-08-13T15:26:02.613Z,30.92
2018-08-13T15:28:32.843Z,30.93
2018-08-13T15:31:09.360Z,30.81
2018-08-13T15:33:41.364Z,30.92
2018-08-13T15:36:13.446Z,31.13
2018-08-13T15:38:44.950Z,31.19
2018-08-13T15:41:15.446Z,31.26
2018-08-13T15:43:47.516Z,31.49
2018-08-13T15:46:19.296Z,31.23
2018-08-13T15:48:49.550Z,31.31
2018-08-13T15:51:19.727Z,31.39
2018-08-13T15:53:53.209Z,31.66
2018-08-13T15:56:23.554Z,32.25
2018-08-13T15:58:54.565Z,32.52
2018-08-13T16:01:26.276Z,32.53
2018-08-13T16:03:57.653Z,32.47
2018-08-13T16:06:28.350Z,32.45
2018-08-13T16:09:00.389Z,32.64
2018-08-13T16:11:30.623Z,33.22
2018-08-13T16:14:01.734Z,33.88
2018-08-13T16:16:32.747Z,34.64
2018-08-13T16:19:05.674Z,34.93
2018-08-13T16:21:37.495Z,35.35
2018-08-13T16:24:10.171Z,35.28
2018-08-13T16:26:42.558Z,35.28
2018-08-13T16:29:13.889Z,34.88
2018-08-13T16:31:47.491Z,35.04
2018-08-13T16:34:18.553Z,35.62
2018-08-13T16:36:50.263Z,36.20
2018-08-13T16:39:21.040Z,36.37
2018-08-13T16:41:52.271Z,35.78
2018-08-13T16:44:23.388Z,35.36
2018-08-13T16:46:55.116Z,35.04
2018-08-13T16:49:26.198Z,35.01
2018-08-13T16:51:57.244Z,34.87
2018-08-13T16:54:28.556Z,34.58
2018-08-13T16:57:04.941Z,34.57
2018-08-13T16:59:37.713Z,34.47
2018-08-13T17:02:09.653Z,34.57
2018-08-13T17:04:40.771Z,34.64
2018-08-13T17:07:12.928Z,34.60
2018-08-13T17:12:56.178Z,34.73
2018-08-13T17:15:29.200Z,34.67
2018-08-13T17:18:01.848Z,34.79
2018-08-13T17:20:38.459Z,35.20
2018-08-13T17:23:10.668Z,35.42
2018-08-13T17:25:48.452Z,35.28
2018-08-13T17:28:20.264Z,35.35
2018-08-13T17:30:52.031Z,34.73
2018-08-13T17:33:27.560Z,34.27
2018-08-13T17:35:59.433Z,33.75
2018-08-13T17:38:31.523Z,33.47
2018-08-13T17:41:02.601Z,33.18
2018-08-13T17:43:33.756Z,32.88
2018-08-13T17:46:05.695Z,32.54
2018-08-13T17:48:36.741Z,32.51
2018-08-13T17:51:08.847Z,32.48
2018-08-13T17:53:41.806Z,32.00
2018-08-13T17:56:13.816Z,31.59
2018-08-13T17:58:45.452Z,31.55
2018-08-13T18:01:17.262Z,31.79
2018-08-13T18:03:50.133Z,31.84
2018-08-13T18:06:21.355Z,31.47
2018-08-13T18:08:52.477Z,31.22
2018-08-13T18:11:22.735Z,31.30
2018-08-13T18:13:54.388Z,31.23
2018-08-13T18:16:27.862Z,30.70
2018-08-13T18:19:00.487Z,30.18
2018-08-13T18:21:34.525Z,29.48
2018-08-13T18:24:09.341Z,28.65
2018-08-13T18:26:42.427Z,27.75
2018-08-13T18:29:14.552Z,27.12
2018-08-13T18:31:46.328Z,26.62
2018-08-13T18:34:18.114Z,26.35
2018-08-13T18:36:50.390Z,26.39
2018-08-13T18:39:23.569Z,26.15
2018-08-13T18:41:54.661Z,26.24
2018-08-13T18:44:35.696Z,26.35
2018-08-13T18:47:08.858Z,26.44
2018-08-13T18:49:41.907Z,26.33
2018-08-13T18:52:14.153Z,26.38
2018-08-13T18:54:52.714Z,26.39
2018-08-13T18:57:30.532Z,26.64
2018-08-13T19:00:08.946Z,26.72
2018-08-13T19:02:58.759Z,26.60
2018-08-13T19:05:41.405Z,26.44
2018-08-13T19:08:25.159Z,26.67
2018-08-13T19:14:35.640Z,26.60
2018-08-13T19:24:01.635Z,26.47
2018-08-13T19:26:34.216Z,26.37
2018-08-13T19:29:07.220Z,26.30
2018-08-13T19:31:46.394Z,26.34
2018-08-13T19:34:18.647Z,26.45
2018-08-13T19:36:52.590Z,26.18
2018-08-13T19:39:24.335Z,26.19
2018-08-13T19:41:57.421Z,26.15
2018-08-13T19:44:28.826Z,26.12
2018-08-13T19:47:08.037Z,25.98
2018-08-13T19:49:41.982Z,26.01
2018-08-13T19:52:16.334Z,25.96
2018-08-13T19:55:00.087Z,25.68
2018-08-13T19:57:32.601Z,25.57
2018-08-13T20:03:01.103Z,25.51
2018-08-13T20:05:32.708Z,25.30
2018-08-13T20:08:04.073Z,25.25
2018-08-13T20:10:38.679Z,25.26
2018-08-13T20:13:14.142Z,25.25
2018-08-13T20:15:50.841Z,25.47
2018-08-13T20:18:27.271Z,25.43
2018-08-13T20:20:59.757Z,25.62
2018-08-13T20:23:36.497Z,25.50
2018-08-13T20:26:09.789Z,25.62
2018-08-13T20:28:49.166Z,25.78
2018-08-13T20:31:26.599Z,25.56
2018-08-13T20:34:21.898Z,25.40
2018-08-13T20:36:54.061Z,25.62
2018-08-13T20:39:27.241Z,25.65
2018-08-13T20:41:59.544Z,25.54
2018-08-13T20:44:30.568Z,25.50
2018-08-13T20:47:03.515Z,25.29
2018-08-13T20:49:39.328Z,25.24
2018-08-13T20:52:14.509Z,25.21
2018-08-13T20:54:47.714Z,25.03
2018-08-13T20:57:24.932Z,25.01
2018-08-13T20:59:56.025Z,24.90
2018-08-13T21:02:29.104Z,25.24
2018-08-13T21:05:03.600Z,25.10
2018-08-13T21:07:41.242Z,25.36
2018-08-13T21:13:06.401Z,25.30
2018-08-13T21:15:38.346Z,25.05
2018-08-13T21:18:09.445Z,25.02
2018-08-13T21:20:42.441Z,24.83
2018-08-13T21:23:15.730Z,24.67
2018-08-13T21:25:49.598Z,24.38
2018-08-13T21:31:03.673Z,24.12
2018-08-13T21:33:35.594Z,24.19
2018-08-13T21:36:08.663Z,24.22
2018-08-13T21:38:41.313Z,24.52
2018-08-13T21:41:18.681Z,24.72
2018-08-13T21:43:52.874Z,24.61
2018-08-13T21:46:23.994Z,24.48
2018-08-13T21:51:33.176Z,24.75
2018-08-13T21:54:04.776Z,24.70
2018-08-13T21:56:40.361Z,24.53
2018-08-13T21:59:16.091Z,24.41
2018-08-13T22:01:49.701Z,24.44
2018-08-13T22:04:22.054Z,24.46
2018-08-13T22:06:56.733Z,24.32
2018-08-13T22:09:30.858Z,24.30
2018-08-13T22:12:02.679Z,24.39
2018-08-13T22:14:34.386Z,24.38
2018-08-13T22:17:05.888Z,24.57
2018-08-13T22:19:37.301Z,24.75
2018-08-13T22:22:09.888Z,24.59
2018-08-13T22:24:52.282Z,24.76
2018-08-13T22:27:23.976Z,24.55
2018-08-13T22:29:56.064Z,24.50
2018-08-13T22:32:32.864Z,24.45
2018-08-13T22:35:05.886Z,24.42
2018-08-13T22:37:38.562Z,24.63
2018-08-13T22:40:20.188Z,24.68
2018-08-13T22:42:53.170Z,24.75
2018-08-13T22:45:25.828Z,24.82
2018-08-13T22:47:57.599Z,24.67
2018-08-13T22:50:30.261Z,24.91
2018-08-13T22:53:02.454Z,25.16
2018-08-13T22:55:33.595Z,24.99
2018-08-13T22:58:06.671Z,24.97
2018-08-13T23:00:39.550Z,24.77
2018-08-13T23:03:12.445Z,24.68
2018-08-13T23:05:47.822Z,24.48
2018-08-13T23:08:19.446Z,24.46
2018-08-13T23:10:50.648Z,24.85
2018-08-13T23:13:23.349Z,24.79
2018-08-13T23:15:56.557Z,25.17
2018-08-13T23:18:29.128Z,25.29
2018-08-13T23:21:00.502Z,25.73
2018-08-13T23:23:31.602Z,25.53
2018-08-13T23:26:03.494Z,25.52
2018-08-13T23:28:35.933Z,25.44
2018-08-13T23:31:07.430Z,25.58
2018-08-13T23:33:41.670Z,25.74
2018-08-13T23:36:16.708Z,25.53
2018-08-13T23:38:49.354Z,25.69
2018-08-13T23:41:20.418Z,25.68
2018-08-13T23:43:53.278Z,25.56
2018-08-13T23:46:24.446Z,25.53
2018-08-13T23:48:56.009Z,25.48
2018-08-13T23:51:27.115Z,25.60
2018-08-13T23:53:57.494Z,25.33
2018-08-13T23:56:29.686Z,25.50
2018-08-13T23:58:59.901Z,25.55
